createdAt,value
2018-03-28T00:00:27.141Z,87.20
2018-03-28T00:01:27.053Z,87.68
2018-03-28T00:02:26.980Z,87.68
2018-03-28T00:03:26.894Z,88.81
2018-03-28T00:04:27.823Z,88.81
2018-03-28T00:05:26.739Z,88.24
2018-03-28T00:06:26.668Z,88.81
2018-03-28T00:07:26.580Z,89.29
2018-03-28T00:08:26.511Z,89.20
2018-03-28T00:09:26.422Z,89.10
2018-03-28T00:10:27.353Z,89.48
2018-03-28T00:11:26.270Z,89.76
2018-03-28T00:12:26.198Z,89.48
2018-03-28T00:13:26.112Z,89.95
2018-03-28T00:14:26.032Z,91.19
2018-03-28T00:15:25.951Z,91.00
2018-03-28T00:16:26.528Z,91.38
2018-03-28T00:17:25.792Z,91.00
2018-03-28T00:18:25.726Z,91.00
2018-03-28T00:19:25.638Z,91.94
2018-03-28T00:20:25.568Z,92.42
2018-03-28T00:21:25.481Z,92.52
2018-03-28T00:22:25.406Z,92.71
2018-03-28T00:23:25.323Z,92.52
2018-03-28T00:24:25.257Z,92.90
2018-03-28T00:25:25.169Z,93.75
2018-03-28T00:26:25.096Z,94.32
2018-03-28T00:27:25.011Z,94.84
2018-03-28T00:28:24.939Z,94.89
2018-03-28T00:29:24.854Z,94.18
2018-03-28T00:30:24.790Z,94.65
2018-03-28T00:31:24.734Z,95.31
2018-03-28T00:32:24.625Z,95.88
2018-03-28T00:33:24.539Z,96.22
2018-03-28T00:34:24.469Z,96.17
2018-03-28T00:35:24.379Z,96.55
2018-03-28T00:36:24.312Z,96.92
2018-03-28T00:37:24.221Z,97.40
2018-03-28T00:38:24.154Z,97.21
2018-03-28T00:39:24.066Z,97.78
2018-03-28T00:40:23.990Z,97.97
2018-03-28T00:41:23.908Z,98.07
2018-03-28T00:42:23.891Z,98.25
2018-03-28T00:43:23.752Z,98.35
2018-03-28T00:44:23.682Z,98.63
2018-03-28T00:45:23.597Z,98.54
2018-03-28T00:46:23.522Z,98.44
2018-03-28T00:47:23.433Z,99.01
2018-03-28T00:48:23.366Z,98.44
2018-03-28T00:49:23.281Z,98.82
2018-03-28T00:50:23.208Z,98.92
2018-03-28T00:51:23.129Z,99.68
2018-03-28T00:52:23.050Z,99.58
2018-03-28T00:53:22.963Z,99.20
2018-03-28T00:54:22.898Z,99.49
2018-03-28T00:55:22.809Z,99.99
2018-03-28T00:56:22.738Z,99.99
2018-03-28T00:57:22.651Z,99.99
2018-03-28T00:58:22.577Z,99.99
2018-03-28T00:59:22.492Z,99.99
2018-03-28T01:00:22.421Z,99.99
2018-03-28T01:01:22.332Z,99.99
2018-03-28T01:02:22.263Z,99.99
2018-03-28T01:03:22.178Z,99.99
2018-03-28T01:04:22.107Z,99.99
2018-03-28T01:05:22.021Z,99.99
2018-03-28T01:06:21.947Z,99.99
2018-03-28T01:07:21.866Z,99.99
2018-03-28T01:08:21.792Z,99.99
2018-03-28T01:09:21.702Z,99.99
2018-03-28T01:10:21.641Z,99.99
2018-03-28T01:11:21.553Z,99.99
2018-03-28T01:12:21.477Z,99.99
2018-03-28T01:13:21.388Z,99.99
2018-03-28T01:14:21.316Z,99.99
2018-03-28T01:15:21.232Z,99.99
2018-03-28T01:16:21.164Z,99.99
2018-03-28T01:17:21.074Z,99.99
2018-03-28T01:18:21.004Z,99.99
2018-03-28T01:19:20.916Z,99.99
2018-03-28T01:20:21.843Z,99.99
2018-03-28T01:21:20.761Z,99.99
2018-03-28T01:22:20.687Z,99.99
2018-03-28T01:23:20.599Z,99.99
2018-03-28T01:24:20.531Z,99.99
2018-03-28T01:25:20.443Z,99.99
2018-03-28T01:26:20.384Z,99.99
2018-03-28T01:27:20.287Z,99.99
2018-03-28T01:28:20.214Z,99.99
2018-03-28T01:29:20.131Z,99.99
2018-03-28T01:30:20.067Z,99.99
2018-03-28T01:31:19.971Z,99.99
2018-03-28T01:32:19.893Z,99.99
2018-03-28T01:33:19.812Z,99.99
2018-03-28T01:34:19.741Z,99.99
2018-03-28T01:35:19.656Z,99.99
2018-03-28T01:36:19.593Z,99.99
2018-03-28T01:37:19.494Z,99.99
2018-03-28T01:38:19.429Z,99.99
2018-03-28T01:39:19.342Z,99.99
2018-03-28T01:40:19.272Z,99.99
2018-03-28T01:41:19.178Z,99.99
2018-03-28T01:42:19.111Z,99.99
2018-03-28T01:43:19.024Z,99.99
2018-03-28T01:44:18.958Z,99.99
2018-03-28T01:45:18.867Z,99.99
2018-03-28T01:46:18.799Z,99.99
2018-03-28T01:47:18.708Z,99.99
2018-03-28T01:48:18.638Z,99.99
2018-03-28T01:49:18.549Z,99.99
2018-03-28T01:50:18.478Z,99.99
2018-03-28T01:51:18.394Z,99.99
2018-03-28T01:52:18.323Z,99.99
2018-03-28T01:53:18.246Z,99.99
2018-03-28T01:54:18.160Z,99.99
2018-03-28T01:55:18.082Z,99.99
2018-03-28T01:56:18.009Z,99.99
2018-03-28T01:57:17.918Z,99.99
2018-03-28T01:58:17.843Z,99.99
2018-03-28T01:59:17.763Z,99.99
2018-03-28T02:00:17.692Z,99.99
2018-03-28T02:01:17.604Z,99.99
2018-03-28T02:02:17.534Z,99.99
2018-03-28T02:03:17.447Z,99.99
2018-03-28T02:04:17.371Z,99.99
2018-03-28T02:05:17.286Z,99.99
2018-03-28T02:06:17.218Z,99.99
2018-03-28T02:07:17.133Z,99.99
2018-03-28T02:08:17.057Z,99.99
2018-03-28T02:09:16.970Z,99.99
2018-03-28T02:10:16.901Z,99.99
2018-03-28T02:11:16.814Z,99.99
2018-03-28T02:12:16.745Z,99.99
2018-03-28T02:13:16.653Z,99.99
2018-03-28T02:14:16.591Z,99.99
2018-03-28T02:15:16.494Z,99.99
2018-03-28T02:16:16.427Z,99.99
2018-03-28T02:17:16.339Z,99.99
2018-03-28T02:18:16.272Z,99.99
2018-03-28T02:19:16.182Z,99.99
2018-03-28T02:20:16.111Z,99.99
2018-03-28T02:21:16.025Z,99.99
2018-03-28T02:22:15.953Z,99.99
2018-03-28T02:23:15.867Z,99.99
2018-03-28T02:24:15.798Z,99.99
2018-03-28T02:25:15.707Z,99.99
2018-03-28T02:26:15.643Z,99.99
2018-03-28T02:27:15.551Z,99.99
2018-03-28T02:28:15.478Z,99.99
2018-03-28T02:29:15.393Z,99.99
2018-03-28T02:30:15.328Z,99.99
2018-03-28T02:31:15.238Z,99.99
2018-03-28T02:32:15.167Z,99.99
2018-03-28T02:33:15.082Z,99.99
2018-03-28T02:34:15.005Z,99.99
2018-03-28T02:35:14.924Z,99.99
2018-03-28T02:36:14.853Z,99.99
2018-03-28T02:37:14.760Z,99.99
2018-03-28T02:38:14.689Z,99.99
2018-03-28T02:39:14.602Z,99.99
2018-03-28T02:40:14.534Z,99.99
2018-03-28T02:41:14.445Z,99.99
2018-03-28T02:42:14.377Z,99.99
2018-03-28T02:43:14.286Z,99.99
2018-03-28T02:44:14.219Z,99.99
2018-03-28T02:45:14.163Z,99.99
2018-03-28T02:46:14.058Z,99.99
2018-03-28T02:47:13.971Z,99.99
2018-03-28T02:48:13.897Z,99.99
2018-03-28T02:49:13.817Z,99.99
2018-03-28T02:50:13.740Z,99.99
2018-03-28T02:51:13.656Z,99.99
2018-03-28T02:52:13.584Z,99.99
2018-03-28T02:53:13.496Z,99.99
2018-03-28T02:54:13.426Z,99.99
2018-03-28T02:55:13.337Z,99.99
2018-03-28T02:56:13.263Z,99.99
2018-03-28T02:57:13.182Z,99.99
2018-03-28T02:58:13.116Z,99.99
2018-03-28T02:59:13.024Z,99.99
2018-03-28T03:00:12.955Z,99.99
2018-03-28T03:01:12.866Z,99.99
2018-03-28T03:02:12.794Z,99.99
2018-03-28T03:03:12.713Z,99.99
2018-03-28T03:04:12.640Z,99.99
2018-03-28T03:05:12.548Z,99.99
2018-03-28T03:06:12.481Z,99.99
2018-03-28T03:07:12.394Z,99.99
2018-03-28T03:08:12.320Z,99.99
2018-03-28T03:09:12.235Z,99.99
2018-03-28T03:10:12.178Z,99.99
2018-03-28T03:11:12.077Z,99.99
2018-03-28T03:12:12.006Z,99.99
2018-03-28T03:13:11.923Z,99.99
2018-03-28T03:14:11.848Z,99.99
2018-03-28T03:15:11.762Z,99.99
2018-03-28T03:16:12.689Z,99.99
2018-03-28T03:17:11.599Z,99.99
2018-03-28T03:18:11.529Z,99.99
2018-03-28T03:19:11.441Z,99.99
2018-03-28T03:20:11.375Z,99.99
2018-03-28T03:21:11.292Z,99.99
2018-03-28T03:22:11.215Z,99.99
2018-03-28T03:23:11.127Z,99.99
2018-03-28T03:24:11.056Z,99.99
2018-03-28T03:25:10.969Z,99.99
2018-03-28T03:26:10.895Z,99.99
2018-03-28T03:27:10.813Z,99.99
2018-03-28T03:28:10.745Z,99.99
2018-03-28T03:29:10.659Z,99.99
2018-03-28T03:30:10.582Z,99.99
2018-03-28T03:31:10.496Z,99.99
2018-03-28T03:32:10.423Z,99.99
2018-03-28T03:33:10.335Z,99.99
2018-03-28T03:34:10.269Z,99.99
2018-03-28T03:35:10.181Z,99.99
2018-03-28T03:36:10.109Z,99.99
2018-03-28T03:37:10.019Z,99.99
2018-03-28T03:38:09.950Z,99.99
2018-03-28T03:39:09.865Z,99.99
2018-03-28T03:40:09.794Z,99.99
2018-03-28T03:41:09.709Z,99.99
2018-03-28T03:42:09.633Z,99.99
2018-03-28T03:43:09.546Z,99.99
2018-03-28T03:44:09.475Z,99.99
2018-03-28T03:45:09.392Z,99.99
2018-03-28T03:46:09.312Z,99.99
2018-03-28T03:47:09.233Z,99.99
2018-03-28T03:48:09.156Z,99.99
2018-03-28T03:49:09.074Z,99.99
2018-03-28T03:50:09.001Z,99.99
2018-03-28T03:51:08.954Z,99.99
2018-03-28T03:52:08.845Z,99.99
2018-03-28T03:53:08.756Z,99.99
2018-03-28T03:54:08.684Z,99.99
2018-03-28T03:55:08.598Z,99.99
2018-03-28T03:56:08.526Z,99.99
2018-03-28T03:57:08.441Z,99.99
2018-03-28T03:58:08.368Z,99.99
2018-03-28T03:59:08.282Z,99.99
2018-03-28T04:00:08.211Z,99.99
2018-03-28T04:01:08.124Z,99.99
2018-03-28T04:02:08.050Z,99.99
2018-03-28T04:03:07.966Z,99.99
2018-03-28T04:04:07.896Z,99.99
2018-03-28T04:05:07.810Z,99.99
2018-03-28T04:06:07.741Z,99.99
2018-03-28T04:07:07.651Z,99.99
2018-03-28T04:08:07.580Z,99.99
2018-03-28T04:09:07.491Z,99.99
2018-03-28T04:10:07.419Z,99.99
2018-03-28T04:11:07.335Z,99.99
2018-03-28T04:12:07.264Z,99.99
2018-03-28T04:13:07.180Z,99.99
2018-03-28T04:14:08.110Z,99.99
2018-03-28T04:15:07.023Z,99.99
2018-03-28T04:16:07.016Z,99.99
2018-03-28T04:17:06.861Z,99.99
2018-03-28T04:18:06.835Z,99.99
2018-03-28T04:19:06.704Z,99.99
2018-03-28T04:20:06.710Z,99.99
2018-03-28T04:21:06.550Z,99.99
2018-03-28T04:22:06.515Z,99.99
2018-03-28T04:23:06.387Z,99.99
2018-03-28T04:24:06.326Z,99.99
2018-03-28T04:25:06.230Z,99.99
2018-03-28T04:26:06.238Z,99.99
2018-03-28T04:27:06.078Z,99.99
2018-03-28T04:28:06.046Z,99.99
2018-03-28T04:29:05.912Z,99.99
2018-03-28T04:30:05.901Z,99.99
2018-03-28T04:31:05.756Z,99.99
2018-03-28T04:32:05.770Z,99.99
2018-03-28T04:33:05.600Z,99.99
2018-03-28T04:34:05.578Z,99.99
2018-03-28T04:35:05.439Z,99.99
2018-03-28T04:36:05.386Z,99.99
2018-03-28T04:37:05.283Z,99.99
2018-03-28T04:38:05.295Z,99.99
2018-03-28T04:39:05.125Z,99.99
2018-03-28T04:40:05.109Z,99.99
2018-03-28T04:41:04.966Z,99.99
2018-03-28T04:42:04.932Z,99.99
2018-03-28T04:43:04.811Z,99.99
2018-03-28T04:44:04.741Z,99.99
2018-03-28T04:45:04.651Z,99.99
2018-03-28T04:46:04.654Z,99.99
2018-03-28T04:47:04.496Z,99.99
2018-03-28T04:48:04.422Z,99.99
2018-03-28T04:49:04.337Z,99.99
2018-03-28T04:50:04.258Z,99.99
2018-03-28T04:51:04.279Z,99.99
2018-03-28T04:52:04.102Z,99.99
2018-03-28T04:53:04.037Z,99.99
2018-03-28T04:54:03.948Z,99.99
2018-03-28T04:55:03.869Z,99.99
2018-03-28T04:56:03.784Z,99.99
2018-03-28T04:57:03.707Z,99.99
2018-03-28T04:58:03.637Z,99.99
2018-03-28T04:59:03.575Z,99.99
2018-03-28T05:00:03.502Z,99.99
2018-03-28T05:01:03.390Z,99.99
2018-03-28T05:02:03.323Z,99.99
2018-03-28T05:03:03.236Z,99.99
2018-03-28T05:04:03.229Z,99.99
2018-03-28T05:05:03.074Z,99.99
2018-03-28T05:06:03.032Z,99.99
2018-03-28T05:07:02.917Z,99.99
2018-03-28T05:08:03.049Z,99.99
2018-03-28T05:09:02.762Z,99.99
2018-03-28T05:10:02.860Z,99.99
2018-03-28T05:11:02.603Z,99.99
2018-03-28T05:12:02.668Z,99.99
2018-03-28T05:13:02.449Z,99.99
2018-03-28T05:14:02.580Z,99.99
2018-03-28T05:15:02.291Z,99.99
2018-03-28T05:16:02.285Z,99.99
2018-03-28T05:17:02.131Z,99.99
2018-03-28T05:18:02.094Z,99.99
2018-03-28T05:19:01.972Z,99.99
2018-03-28T05:20:02.004Z,99.99
2018-03-28T05:21:01.817Z,99.99
2018-03-28T05:22:01.815Z,99.99
2018-03-28T05:23:01.656Z,99.99
2018-03-28T05:24:01.736Z,99.99
2018-03-28T05:25:01.504Z,99.99
2018-03-28T05:26:01.640Z,99.99
2018-03-28T05:27:01.346Z,99.99
2018-03-28T05:28:01.450Z,99.99
2018-03-28T05:29:01.186Z,99.99
2018-03-28T05:30:01.297Z,99.99
2018-03-28T05:31:01.030Z,99.99
2018-03-28T05:32:01.174Z,99.99
2018-03-28T05:33:00.878Z,99.99
2018-03-28T05:34:02.827Z,99.99
2018-03-28T05:35:00.722Z,99.99
2018-03-28T05:36:00.690Z,99.99
2018-03-28T05:37:00.566Z,99.99
2018-03-28T05:38:00.594Z,99.99
2018-03-28T05:39:00.402Z,99.99
2018-03-28T05:40:02.366Z,99.99
2018-03-28T05:41:00.244Z,99.99
2018-03-28T05:42:00.216Z,99.99
2018-03-28T05:43:00.086Z,99.99
2018-03-28T05:44:00.128Z,99.99
2018-03-28T05:44:59.933Z,99.99
2018-03-28T05:46:00.038Z,99.99
2018-03-28T05:46:59.776Z,99.99
2018-03-28T05:47:59.849Z,99.99
2018-03-28T05:48:59.613Z,99.99
2018-03-28T05:49:59.654Z,99.99
2018-03-28T05:50:59.465Z,99.99
2018-03-28T05:51:59.562Z,99.99
2018-03-28T05:52:59.303Z,99.99
2018-03-28T05:53:59.376Z,99.99
2018-03-28T05:54:59.145Z,99.99
2018-03-28T05:55:59.283Z,99.99
2018-03-28T05:56:58.990Z,99.99
2018-03-28T05:57:59.094Z,99.99
2018-03-28T05:58:58.832Z,99.99
2018-03-28T05:59:58.906Z,99.99
2018-03-28T06:00:58.675Z,99.99
2018-03-28T06:01:58.862Z,99.99
2018-03-28T06:02:58.518Z,99.99
2018-03-28T06:03:58.624Z,99.99
2018-03-28T06:04:58.367Z,99.99
2018-03-28T06:05:58.432Z,99.99
2018-03-28T06:06:58.208Z,99.99
2018-03-28T06:07:58.341Z,99.99
2018-03-28T06:08:58.048Z,99.99
2018-03-28T06:09:58.154Z,99.99
2018-03-28T06:10:57.898Z,99.99
2018-03-28T06:11:57.959Z,99.99
2018-03-28T06:12:57.737Z,99.99
2018-03-28T06:13:57.769Z,99.99
2018-03-28T06:14:57.580Z,99.99
2018-03-28T06:15:57.581Z,99.99
2018-03-28T06:16:57.424Z,99.99
2018-03-28T06:17:57.389Z,99.99
2018-03-28T06:18:57.265Z,99.99
2018-03-28T06:19:57.320Z,99.99
2018-03-28T06:20:57.115Z,99.99
2018-03-28T06:21:57.110Z,99.99
2018-03-28T06:22:56.968Z,99.99
2018-03-28T06:23:56.917Z,99.99
2018-03-28T06:24:56.797Z,99.99
2018-03-28T06:25:56.830Z,99.99
2018-03-28T06:26:56.644Z,99.99
2018-03-28T06:27:56.637Z,99.99
2018-03-28T06:28:56.483Z,99.99
2018-03-28T06:29:56.445Z,99.99
2018-03-28T06:30:56.329Z,99.99
2018-03-28T06:31:56.362Z,99.99
2018-03-28T06:32:56.168Z,99.99
2018-03-28T06:33:56.168Z,99.99
2018-03-28T06:34:56.016Z,99.99
2018-03-28T06:35:55.979Z,99.99
2018-03-28T06:36:55.856Z,99.99
2018-03-28T06:37:55.890Z,99.99
2018-03-28T06:38:55.702Z,99.99
2018-03-28T06:39:55.697Z,99.99
2018-03-28T06:40:55.546Z,99.99
2018-03-28T06:41:55.502Z,99.99
2018-03-28T06:42:55.388Z,99.99
2018-03-28T06:43:55.421Z,99.99
2018-03-28T06:44:55.231Z,99.99
2018-03-28T06:45:55.237Z,99.99
2018-03-28T06:46:55.074Z,99.99
2018-03-28T06:47:55.138Z,99.99
2018-03-28T06:48:54.917Z,99.99
2018-03-28T06:49:54.949Z,99.99
2018-03-28T06:50:54.765Z,99.99
2018-03-28T06:51:54.756Z,99.99
2018-03-28T06:52:54.612Z,99.99
2018-03-28T06:53:54.668Z,99.99
2018-03-28T06:54:54.452Z,99.99
2018-03-28T06:55:54.447Z,99.99
2018-03-28T06:56:54.297Z,99.99
2018-03-28T06:57:54.263Z,99.99
2018-03-28T06:58:54.136Z,99.99
2018-03-28T06:59:54.067Z,99.99
2018-03-28T07:00:53.982Z,99.99
2018-03-28T07:01:53.976Z,99.99
2018-03-28T07:02:53.824Z,99.99
2018-03-28T07:03:53.784Z,99.99
2018-03-28T07:04:53.664Z,99.99
2018-03-28T07:05:53.694Z,99.99
2018-03-28T07:06:53.511Z,99.99
2018-03-28T07:07:53.503Z,99.99
2018-03-28T07:08:53.356Z,99.99
2018-03-28T07:09:53.313Z,99.99
2018-03-28T07:10:53.206Z,99.99
2018-03-28T07:11:53.220Z,99.99
2018-03-28T07:12:53.043Z,99.99
2018-03-28T07:13:52.975Z,99.99
2018-03-28T07:14:52.887Z,99.99
2018-03-28T07:15:52.821Z,99.99
2018-03-28T07:16:52.732Z,99.99
2018-03-28T07:17:52.660Z,99.99
2018-03-28T07:18:52.576Z,99.99
2018-03-28T07:19:52.509Z,99.99
2018-03-28T07:20:52.418Z,99.99
2018-03-28T07:21:52.351Z,99.99
2018-03-28T07:22:52.263Z,99.99
2018-03-28T07:23:52.196Z,99.99
2018-03-28T07:24:52.110Z,99.99
2018-03-28T07:25:52.042Z,99.99
2018-03-28T07:26:51.951Z,99.99
2018-03-28T07:27:51.913Z,99.99
2018-03-28T07:28:51.795Z,99.99
2018-03-28T07:29:51.727Z,99.99
2018-03-28T07:30:51.642Z,99.99
2018-03-28T07:31:51.571Z,99.99
2018-03-28T07:32:51.481Z,99.99
2018-03-28T07:33:51.417Z,99.99
2018-03-28T07:34:51.332Z,99.99
2018-03-28T07:35:51.263Z,99.99
2018-03-28T07:36:51.174Z,99.99
2018-03-28T07:37:51.103Z,99.99
2018-03-28T07:38:51.017Z,99.99
2018-03-28T07:39:50.953Z,99.99
2018-03-28T07:40:50.875Z,99.99
2018-03-28T07:41:50.797Z,99.99
2018-03-28T07:42:50.710Z,99.99
2018-03-28T07:43:50.640Z,99.99
2018-03-28T07:44:50.556Z,99.99
2018-03-28T07:45:50.482Z,99.99
2018-03-28T07:46:50.396Z,99.99
2018-03-28T07:47:50.329Z,99.99
2018-03-28T07:48:50.244Z,99.99
2018-03-28T07:49:50.177Z,99.99
2018-03-28T07:50:50.094Z,99.99
2018-03-28T07:51:50.017Z,99.99
2018-03-28T07:52:49.934Z,99.99
2018-03-28T07:53:49.869Z,99.99
2018-03-28T07:54:49.778Z,99.99
2018-03-28T07:55:49.707Z,99.99
2018-03-28T07:56:49.623Z,99.99
2018-03-28T07:57:49.555Z,99.99
2018-03-28T07:58:49.472Z,99.99
2018-03-28T07:59:49.399Z,99.99
2018-03-28T08:00:49.312Z,99.99
2018-03-28T08:01:49.249Z,99.99
2018-03-28T08:02:49.164Z,99.99
2018-03-28T08:03:49.087Z,99.99
2018-03-28T08:04:49.004Z,99.99
2018-03-28T08:05:48.929Z,99.99
2018-03-28T08:06:48.849Z,99.99
2018-03-28T08:07:48.779Z,99.99
2018-03-28T08:08:48.703Z,99.99
2018-03-28T08:09:48.624Z,99.99
2018-03-28T08:10:48.581Z,99.99
2018-03-28T08:11:48.469Z,99.99
2018-03-28T08:12:48.385Z,99.99
2018-03-28T08:13:48.314Z,99.99
2018-03-28T08:14:48.229Z,99.99
2018-03-28T08:15:48.168Z,99.99
2018-03-28T08:16:48.073Z,99.99
2018-03-28T08:17:48.006Z,99.99
2018-03-28T08:18:47.919Z,99.99
2018-03-28T08:19:47.864Z,99.99
2018-03-28T08:20:47.768Z,99.99
2018-03-28T08:21:47.698Z,99.99
2018-03-28T08:22:47.613Z,99.99
2018-03-28T08:23:47.542Z,99.99
2018-03-28T08:24:47.459Z,99.99
2018-03-28T08:25:47.389Z,99.99
2018-03-28T08:26:47.301Z,99.99
2018-03-28T08:27:47.234Z,99.99
2018-03-28T08:28:47.147Z,99.99
2018-03-28T08:29:47.079Z,99.99
2018-03-28T08:30:46.996Z,99.99
2018-03-28T08:31:46.925Z,99.99
2018-03-28T08:32:46.876Z,99.99
2018-03-28T08:33:46.766Z,99.99
2018-03-28T08:34:46.688Z,99.99
2018-03-28T08:35:46.616Z,99.99
2018-03-28T08:36:46.531Z,99.99
2018-03-28T08:37:46.462Z,99.99
2018-03-28T08:38:46.382Z,99.99
2018-03-28T08:39:46.308Z,99.99
2018-03-28T08:40:46.223Z,99.99
2018-03-28T08:41:46.154Z,99.99
2018-03-28T08:42:46.064Z,99.99
2018-03-28T08:43:46.002Z,99.99
2018-03-28T08:44:45.916Z,99.99
2018-03-28T08:45:45.844Z,99.99
2018-03-28T08:46:45.762Z,99.99
2018-03-28T08:47:45.690Z,99.99
2018-03-28T08:48:45.601Z,99.99
2018-03-28T08:49:45.538Z,99.99
2018-03-28T08:50:45.450Z,99.99
2018-03-28T08:51:45.384Z,99.99
2018-03-28T08:52:45.297Z,99.99
2018-03-28T08:53:45.228Z,99.99
2018-03-28T08:54:45.146Z,99.99
2018-03-28T08:55:45.074Z,99.99
2018-03-28T08:56:44.996Z,99.99
2018-03-28T08:57:44.923Z,99.99
2018-03-28T08:58:44.841Z,99.99
2018-03-28T08:59:44.771Z,99.99
2018-03-28T09:00:44.688Z,99.99
2018-03-28T09:01:44.614Z,99.99
2018-03-28T09:02:44.530Z,99.99
2018-03-28T09:03:44.460Z,98.84
2018-03-28T09:04:44.378Z,98.36
2018-03-28T09:05:44.307Z,98.74
2018-03-28T09:06:44.226Z,97.89
2018-03-28T09:07:44.158Z,97.41
2018-03-28T09:08:44.072Z,97.41
2018-03-28T09:09:44.002Z,97.60
2018-03-28T09:10:43.920Z,98.74
2018-03-28T09:11:43.872Z,98.65
2018-03-28T09:12:43.765Z,97.51
2018-03-28T09:13:43.783Z,97.22
2018-03-28T09:14:43.615Z,97.22
2018-03-28T09:15:43.544Z,98.36
2018-03-28T09:16:43.458Z,97.60
2018-03-28T09:17:43.502Z,97.27
2018-03-28T09:18:43.308Z,97.08
2018-03-28T09:19:43.310Z,97.55
2018-03-28T09:20:43.155Z,98.22
2018-03-28T09:21:43.120Z,97.08
2018-03-28T09:22:42.999Z,97.99
2018-03-28T09:23:42.932Z,99.03
2018-03-28T09:24:42.852Z,99.51
2018-03-28T09:25:42.836Z,96.94
2018-03-28T09:26:42.701Z,94.56
2018-03-28T09:27:42.644Z,94.56
2018-03-28T09:28:42.546Z,94.37
2018-03-28T09:29:42.471Z,93.98
2018-03-28T09:30:42.405Z,95.22
2018-03-28T09:31:42.366Z,95.12
2018-03-28T09:32:42.244Z,93.46
2018-03-28T09:33:42.177Z,93.46
2018-03-28T09:34:42.084Z,92.79
2018-03-28T09:35:42.083Z,93.17
2018-03-28T09:36:41.934Z,92.13
2018-03-28T09:37:41.890Z,91.08
2018-03-28T09:38:41.782Z,89.84
2018-03-28T09:39:41.807Z,88.98
2018-03-28T09:40:41.629Z,89.84
2018-03-28T09:41:41.611Z,90.84
2018-03-28T09:42:41.480Z,88.93
2018-03-28T09:43:41.419Z,89.22
2018-03-28T09:44:41.328Z,89.79
2018-03-28T09:45:41.332Z,89.31
2018-03-28T09:46:41.175Z,90.45
2018-03-28T09:47:41.138Z,89.03
2018-03-28T09:48:41.026Z,87.31
2018-03-28T09:49:41.051Z,87.16
2018-03-28T09:50:40.872Z,88.12
2018-03-28T09:51:40.856Z,88.21
2018-03-28T09:52:40.720Z,88.21
2018-03-28T09:53:40.671Z,88.69
2018-03-28T09:54:40.571Z,86.78
2018-03-28T09:55:40.576Z,82.49
2018-03-28T09:56:40.429Z,82.01
2018-03-28T09:57:40.384Z,83.21
2018-03-28T09:58:40.269Z,84.07
2018-03-28T09:59:40.296Z,83.50
2018-03-28T10:00:40.117Z,83.69
2018-03-28T10:01:40.104Z,85.02
2018-03-28T10:02:39.982Z,84.83
2018-03-28T10:03:39.892Z,86.26
2018-03-28T10:04:40.015Z,86.26
2018-03-28T10:05:39.743Z,85.97
2018-03-28T10:06:39.824Z,86.32
2018-03-28T10:07:39.592Z,86.51
2018-03-28T10:08:39.633Z,85.36
2018-03-28T10:09:39.441Z,84.12
2018-03-28T10:10:39.547Z,83.84
2018-03-28T10:11:39.299Z,83.74
2018-03-28T10:12:39.352Z,83.36
2018-03-28T10:13:39.139Z,83.74
2018-03-28T10:14:39.064Z,83.36
2018-03-28T10:15:39.167Z,83.55
2018-03-28T10:16:38.915Z,84.79
2018-03-28T10:17:38.977Z,83.74
2018-03-28T10:18:38.763Z,83.55
2018-03-28T10:19:38.893Z,84.12
2018-03-28T10:20:38.608Z,83.74
2018-03-28T10:21:38.697Z,84.69
2018-03-28T10:22:38.459Z,82.41
2018-03-28T10:23:38.509Z,81.55
2018-03-28T10:24:38.310Z,82.12
2018-03-28T10:25:38.477Z,82.21
2018-03-28T10:26:38.157Z,82.60
2018-03-28T10:27:38.227Z,82.79
2018-03-28T10:28:38.005Z,83.17
2018-03-28T10:29:39.057Z,83.65
2018-03-28T10:30:37.852Z,83.65
2018-03-28T10:31:37.947Z,83.26
2018-03-28T10:32:37.705Z,82.79
2018-03-28T10:33:37.760Z,83.36
2018-03-28T10:34:37.556Z,82.50
2018-03-28T10:35:38.709Z,82.41
2018-03-28T10:36:37.401Z,82.79
2018-03-28T10:37:37.475Z,83.07
2018-03-28T10:38:37.249Z,81.93
2018-03-28T10:39:37.392Z,82.12
2018-03-28T10:40:37.116Z,82.89
2018-03-28T10:41:37.243Z,82.31
2018-03-28T10:42:36.958Z,82.41
2018-03-28T10:43:37.426Z,83.17
2018-03-28T10:44:37.037Z,83.17
2018-03-28T10:45:37.169Z,82.41
2018-03-28T10:46:36.877Z,81.55
2018-03-28T10:47:36.956Z,81.55
2018-03-28T10:48:36.764Z,81.74
2018-03-28T10:49:36.900Z,82.31
2018-03-28T10:50:36.422Z,81.55
2018-03-28T10:51:36.608Z,81.74
2018-03-28T10:52:36.189Z,82.12
2018-03-28T10:53:36.259Z,82.12
2018-03-28T10:54:36.046Z,81.78
2018-03-28T10:55:36.166Z,83.78
2018-03-28T10:56:35.886Z,83.40
2018-03-28T10:57:35.977Z,82.17
2018-03-28T10:58:35.738Z,82.54
2018-03-28T10:59:35.887Z,82.92
2018-03-28T11:00:35.592Z,81.73
2018-03-28T11:01:35.697Z,82.11
2018-03-28T11:02:35.436Z,82.20
2018-03-28T11:03:35.564Z,81.82
2018-03-28T11:04:35.455Z,79.91
2018-03-28T11:05:35.416Z,78.05
2018-03-28T11:06:35.136Z,77.19
2018-03-28T11:07:35.226Z,77.57
2018-03-28T11:08:34.984Z,78.14
2018-03-28T11:09:35.138Z,79.10
2018-03-28T11:10:34.836Z,77.38
2018-03-28T11:11:34.946Z,77.19
2018-03-28T11:12:34.681Z,76.86
2018-03-28T11:13:34.755Z,78.58
2018-03-28T11:14:34.534Z,78.39
2018-03-28T11:15:34.565Z,76.67
2018-03-28T11:16:34.388Z,77.72
2018-03-28T11:17:34.381Z,78.58
2018-03-28T11:18:34.239Z,78.39
2018-03-28T11:19:34.284Z,78.01
2018-03-28T11:20:34.128Z,76.86
2018-03-28T11:21:34.093Z,77.06
2018-03-28T11:22:33.939Z,76.81
2018-03-28T11:23:33.903Z,78.72
2018-03-28T11:24:33.786Z,78.52
2018-03-28T11:25:33.812Z,81.01
2018-03-28T11:26:33.637Z,78.23
2018-03-28T11:27:33.621Z,78.05
2018-03-28T11:28:33.486Z,77.19
2018-03-28T11:29:33.518Z,77.38
2018-03-28T11:30:33.337Z,76.81
2018-03-28T11:31:33.346Z,75.79
2018-03-28T11:32:33.191Z,76.94
2018-03-28T11:33:34.119Z,76.52
2018-03-28T11:34:33.052Z,74.71
2018-03-28T11:35:33.064Z,74.71
2018-03-28T11:36:32.891Z,74.99
2018-03-28T11:37:32.874Z,75.09
2018-03-28T11:38:32.742Z,75.37
2018-03-28T11:39:32.797Z,75.09
2018-03-28T11:40:32.593Z,77.67
2018-03-28T11:41:32.610Z,75.95
2018-03-28T11:42:32.444Z,75.18
2018-03-28T11:43:32.506Z,76.23
2018-03-28T11:44:32.301Z,76.14
2018-03-28T11:45:32.317Z,74.99
2018-03-28T11:46:32.160Z,74.99
2018-03-28T11:47:32.122Z,74.42
2018-03-28T11:48:32.002Z,75.42
2018-03-28T11:49:32.034Z,77.13
2018-03-28T11:50:31.848Z,77.23
2018-03-28T11:51:31.842Z,77.65
2018-03-28T11:52:31.696Z,76.50
2018-03-28T11:53:31.755Z,74.11
2018-03-28T11:54:31.562Z,75.07
2018-03-28T11:55:31.562Z,75.07
2018-03-28T11:56:31.403Z,75.16
2018-03-28T11:57:31.371Z,74.88
2018-03-28T11:58:31.256Z,74.55
2018-03-28T11:59:31.281Z,74.46
2018-03-28T12:00:31.103Z,74.37
2018-03-28T12:01:31.093Z,73.88
2018-03-28T12:02:30.956Z,74.17
2018-03-28T12:03:31.004Z,75.51
2018-03-28T12:04:30.809Z,75.32
2018-03-28T12:05:30.812Z,72.74
2018-03-28T12:06:30.663Z,73.03
2018-03-28T12:07:30.725Z,73.32
2018-03-28T12:08:30.514Z,73.32
2018-03-28T12:09:30.535Z,74.27
2018-03-28T12:10:30.370Z,74.27
2018-03-28T12:11:30.344Z,75.32
2018-03-28T12:12:30.216Z,74.17
2018-03-28T12:13:30.255Z,74.55
2018-03-28T12:14:30.075Z,74.42
2018-03-28T12:15:30.060Z,73.56
2018-03-28T12:16:29.915Z,74.80
2018-03-28T12:17:29.980Z,75.47
2018-03-28T12:18:29.775Z,76.04
2018-03-28T12:19:29.757Z,75.95
2018-03-28T12:20:29.624Z,75.95
2018-03-28T12:21:29.599Z,77.09
2018-03-28T12:22:29.478Z,77.38
2018-03-28T12:23:29.505Z,77.95
2018-03-28T12:24:29.333Z,77.95
2018-03-28T12:25:29.278Z,78.05
2018-03-28T12:26:29.182Z,78.72
2018-03-28T12:27:29.230Z,77.95
2018-03-28T12:28:29.033Z,77.57
2018-03-28T12:29:29.029Z,77.86
2018-03-28T12:30:28.933Z,77.67
2018-03-28T12:31:28.948Z,77.42
2018-03-28T12:32:28.737Z,77.61
2018-03-28T12:33:28.751Z,77.03
2018-03-28T12:34:28.587Z,75.85
2018-03-28T12:35:28.681Z,75.28
2018-03-28T12:36:28.443Z,77.38
2018-03-28T12:37:28.372Z,78.43
2018-03-28T12:38:28.303Z,78.05
2018-03-28T12:39:28.253Z,76.23
2018-03-28T12:40:28.144Z,75.28
2018-03-28T12:41:28.196Z,76.27
2018-03-28T12:42:28.008Z,75.60
2018-03-28T12:43:28.003Z,75.98
2018-03-28T12:44:27.858Z,75.13
2018-03-28T12:45:27.966Z,74.37
2018-03-28T12:46:27.699Z,74.37
2018-03-28T12:47:27.723Z,73.88
2018-03-28T12:48:27.552Z,73.41
2018-03-28T12:49:27.641Z,73.98
2018-03-28T12:50:27.401Z,74.02
2018-03-28T12:51:27.439Z,75.26